createdAt,value
2023-01-12T00:01:09.118Z,29.90
2023-01-12T00:04:01.080Z,31.20
2023-01-12T00:06:48.175Z,31.90
2023-01-12T00:09:35.060Z,27.20
2023-01-12T00:15:04.734Z,29.60
2023-01-12T00:17:44.239Z,31.10
2023-01-12T00:20:24.261Z,31.10
2023-01-12T00:23:05.788Z,27.50
2023-01-12T00:25:53.012Z,28.70
2023-01-12T00:28:41.968Z,31.20
2023-01-12T00:31:28.851Z,31.20
2023-01-12T00:34:20.543Z,30.10
2023-01-12T00:37:22.472Z,31.20
2023-01-12T00:40:26.413Z,28.60
2023-01-12T00:43:34.415Z,28.80
2023-01-12T00:46:24.051Z,31.20
2023-01-12T00:49:16.884Z,28.70
2023-01-12T00:51:59.344Z,30.70
2023-01-12T00:54:39.927Z,30.60
2023-01-12T00:57:21.957Z,32.40
2023-01-12T01:00:05.985Z,29.90
2023-01-12T01:02:44.168Z,28.30
2023-01-12T01:05:20.796Z,31.20
2023-01-12T01:07:57.442Z,26.30
2023-01-12T01:10:36.228Z,30.00
2023-01-12T01:13:11.725Z,27.20
2023-01-12T01:15:46.945Z,31.10
2023-01-12T01:18:20.288Z,29.50
2023-01-12T01:20:54.254Z,30.80
2023-01-12T01:23:30.855Z,31.20
2023-01-12T01:26:07.074Z,31.80
2023-01-12T01:28:39.700Z,32.40
2023-01-12T01:31:15.005Z,28.90
2023-01-12T01:33:46.934Z,33.10
2023-01-12T01:36:20.121Z,34.90
2023-01-12T01:38:56.489Z,31.20
2023-01-12T01:41:32.086Z,28.60
2023-01-12T01:44:06.747Z,28.90
2023-01-12T01:46:56.673Z,29.70
2023-01-12T01:49:52.891Z,29.40
2023-01-12T01:52:42.193Z,30.90
2023-01-12T01:55:26.478Z,31.20
2023-01-12T01:58:19.767Z,30.80
2023-01-12T02:01:01.586Z,30.70
2023-01-12T02:03:39.223Z,30.60
2023-01-12T02:06:15.527Z,29.90
2023-01-12T02:09:18.849Z,36.50
2023-01-12T02:12:12.835Z,29.10
2023-01-12T02:15:08.289Z,31.30
2023-01-12T02:18:01.903Z,28.60
2023-01-12T02:20:48.930Z,31.10
2023-01-12T02:23:29.130Z,31.30
2023-01-12T02:26:31.906Z,28.30
2023-01-12T02:29:25.520Z,32.20
2023-01-12T02:36:18.396Z,29.10
2023-01-12T02:39:07.295Z,26.70
2023-01-12T02:42:22.616Z,30.20
2023-01-12T02:45:16.683Z,28.40
2023-01-12T02:47:52.330Z,26.60
2023-01-12T02:54:45.866Z,27.80
2023-01-12T02:57:18.593Z,29.60
2023-01-12T02:59:57.899Z,31.70
2023-01-12T03:02:30.424Z,26.80
2023-01-12T03:05:03.159Z,23.60
2023-01-12T03:07:50.383Z,30.40
2023-01-12T03:10:52.178Z,29.90
2023-01-12T03:13:27.368Z,30.50
2023-01-12T03:16:01.238Z,27.40
2023-01-12T03:19:01.272Z,25.30
2023-01-12T03:24:32.364Z,25.90
2023-01-12T03:27:21.903Z,27.30
2023-01-12T03:30:02.516Z,27.80
2023-01-12T03:32:35.625Z,30.30
2023-01-12T03:35:10.277Z,29.70
2023-01-12T03:38:00.201Z,29.40
2023-01-12T03:40:42.552Z,26.00
2023-01-12T03:43:30.547Z,25.30
2023-01-12T03:46:16.761Z,29.60
2023-01-12T03:49:03.645Z,24.40
2023-01-12T03:51:49.344Z,29.60
2023-01-12T03:54:29.500Z,27.40
2023-01-12T03:57:12.469Z,24.00
2023-01-12T03:59:55.871Z,24.70
2023-01-12T04:02:29.189Z,25.90
2023-01-12T04:05:01.334Z,24.90
2023-01-12T04:07:34.620Z,27.80
2023-01-12T04:10:05.386Z,26.00
2023-01-12T04:12:35.786Z,25.00
2023-01-12T04:15:07.324Z,26.20
2023-01-12T04:17:38.694Z,25.40
2023-01-12T04:20:10.423Z,24.20
2023-01-12T04:22:46.810Z,25.50
2023-01-12T04:25:24.167Z,26.50
2023-01-12T04:27:57.380Z,23.80
2023-01-12T04:30:30.183Z,25.50
2023-01-12T04:33:07.351Z,23.90
2023-01-12T04:35:48.301Z,24.90
2023-01-12T04:38:28.380Z,24.30
2023-01-12T04:41:08.070Z,26.10
2023-01-12T04:43:49.664Z,23.50
2023-01-12T04:46:30.592Z,22.50
2023-01-12T04:49:13.977Z,22.30
2023-01-12T04:51:50.408Z,23.30
2023-01-12T04:54:28.345Z,22.80
2023-01-12T04:56:59.728Z,21.10
2023-01-12T04:59:30.467Z,23.30
2023-01-12T05:02:02.414Z,22.30
2023-01-12T05:04:33.168Z,20.60
2023-01-12T05:09:57.747Z,20.40
2023-01-12T05:12:33.778Z,22.60
2023-01-12T05:15:13.971Z,20.10
2023-01-12T05:18:01.165Z,20.80
2023-01-12T05:20:43.525Z,21.80
2023-01-12T05:23:17.060Z,22.10
2023-01-12T05:25:53.431Z,21.20
2023-01-12T05:28:30.246Z,19.60
2023-01-12T05:31:08.457Z,23.80
2023-01-12T05:33:43.891Z,19.70
2023-01-12T05:36:19.637Z,22.20
2023-01-12T05:39:00.580Z,21.20
2023-01-12T05:42:02.284Z,20.90
2023-01-12T05:44:53.017Z,22.60
2023-01-12T05:47:55.980Z,19.90
2023-01-12T05:50:43.204Z,21.20
2023-01-12T05:53:26.790Z,20.40
2023-01-12T05:56:10.394Z,20.20
2023-01-12T05:59:02.568Z,17.40
2023-01-12T06:01:41.321Z,19.60
2023-01-12T06:04:17.359Z,19.80
2023-01-12T06:06:50.356Z,21.70
2023-01-12T06:09:34.161Z,19.20
2023-01-12T06:12:27.445Z,19.10
2023-01-12T06:14:59.315Z,20.60
2023-01-12T06:17:29.829Z,19.30
2023-01-12T06:20:01.015Z,18.90
2023-01-12T06:22:34.330Z,22.90
2023-01-12T06:25:07.501Z,20.00
2023-01-12T06:27:38.839Z,19.50
2023-01-12T06:30:13.431Z,14.80
2023-01-12T06:32:42.893Z,18.00
2023-01-12T06:35:19.149Z,23.30
2023-01-12T06:37:50.468Z,22.30
2023-01-12T06:40:23.642Z,24.60
2023-01-12T06:42:54.034Z,23.70
2023-01-12T06:45:24.607Z,20.50
2023-01-12T06:50:27.356Z,20.80
2023-01-12T06:53:00.239Z,25.60
2023-01-12T06:55:30.561Z,22.20
2023-01-12T06:58:05.959Z,19.20
2023-01-12T07:04:58.592Z,19.30
2023-01-12T07:07:34.915Z,22.80
2023-01-12T07:10:10.887Z,20.50
2023-01-12T07:12:41.335Z,20.90
2023-01-12T07:15:13.069Z,20.00
2023-01-12T07:17:43.719Z,22.80
2023-01-12T07:42:58.499Z,18.80
2023-01-12T10:59:21.643Z,13.50
2023-01-12T11:02:03.183Z,12.20
2023-01-12T11:04:39.145Z,12.00
2023-01-12T11:07:19.136Z,14.50
2023-01-12T12:00:59.265Z,9.20
2023-01-12T12:03:44.854Z,7.40
2023-01-12T12:06:22.470Z,9.20
2023-01-12T12:09:23.804Z,9.80
2023-01-12T12:12:00.992Z,10.70
2023-01-12T12:14:57.643Z,9.30
2023-01-12T12:17:47.824Z,11.60
2023-01-12T12:20:34.270Z,11.00
2023-01-12T12:23:36.804Z,10.50
2023-01-12T12:26:15.740Z,12.50
2023-01-12T12:29:27.366Z,11.80
2023-01-12T12:32:29.663Z,9.00
2023-01-12T12:35:12.839Z,8.90
2023-01-12T12:37:55.050Z,8.80
2023-01-12T12:41:05.832Z,10.00
2023-01-12T12:43:57.023Z,9.50
2023-01-12T12:46:57.402Z,10.70
2023-01-12T12:49:33.135Z,8.40
2023-01-12T12:52:02.836Z,11.20
2023-01-12T12:54:32.824Z,12.30
2023-01-12T12:57:01.569Z,10.00
2023-01-12T12:59:45.451Z,9.50
2023-01-12T13:02:57.505Z,8.10
2023-01-12T13:05:50.369Z,10.10
2023-01-12T13:11:14.262Z,10.30
2023-01-12T13:14:19.657Z,9.90
2023-01-12T13:18:35.694Z,7.60
2023-01-12T13:21:46.104Z,10.80
2023-01-12T13:24:34.860Z,8.40
2023-01-12T13:27:30.945Z,9.20
2023-01-12T13:30:36.683Z,9.70
2023-01-12T13:33:36.940Z,11.90
2023-01-12T13:38:57.708Z,11.40
2023-01-12T13:42:54.183Z,9.60
2023-01-12T13:46:27.499Z,8.70
2023-01-12T13:49:34.233Z,9.00
2023-01-12T13:52:21.409Z,9.50
2023-01-12T13:55:07.194Z,7.40
2023-01-12T13:58:15.219Z,8.10
2023-01-12T14:00:57.140Z,9.70
2023-01-12T14:03:53.074Z,6.00
2023-01-12T14:06:40.324Z,11.70
2023-01-12T14:09:45.962Z,7.80
2023-01-12T14:12:42.371Z,8.20
2023-01-12T14:15:50.407Z,9.10
2023-01-12T14:18:24.667Z,6.50
2023-01-12T14:21:00.563Z,5.90
2023-01-12T14:23:34.932Z,7.50
2023-01-12T14:26:26.251Z,8.30
2023-01-12T14:33:33.064Z,8.30
2023-01-12T14:36:48.686Z,7.00
2023-01-12T14:39:34.172Z,7.50
2023-01-12T14:42:24.773Z,8.40
2023-01-12T14:45:14.778Z,8.90
2023-01-12T14:47:44.784Z,8.90
2023-01-12T14:50:21.071Z,7.70
2023-01-12T14:52:53.455Z,8.50
2023-01-12T14:55:25.291Z,7.60
2023-01-12T14:58:06.199Z,8.30
2023-01-12T15:00:41.129Z,12.60
2023-01-12T15:03:28.817Z,10.90
2023-01-12T15:06:05.682Z,10.40
2023-01-12T15:08:39.144Z,10.10
2023-01-12T15:11:19.910Z,11.60
2023-01-12T15:13:58.475Z,9.20
2023-01-12T15:17:04.663Z,10.60
2023-01-12T15:23:07.373Z,8.60
2023-01-12T15:25:50.620Z,9.00
2023-01-12T15:29:09.079Z,9.80
2023-01-12T15:31:56.510Z,8.50
2023-01-12T15:39:24.800Z,12.00
2023-01-12T15:51:28.170Z,9.70
2023-01-12T15:58:13.512Z,10.50
2023-01-12T16:10:24.938Z,12.20
2023-01-12T16:14:11.046Z,14.80
2023-01-12T16:16:43.282Z,11.30
2023-01-12T16:19:24.665Z,13.40
2023-01-12T16:22:03.291Z,15.40
2023-01-12T16:24:33.154Z,15.60
2023-01-12T16:27:02.252Z,13.60
2023-01-12T16:29:31.244Z,15.50
2023-01-12T16:32:00.360Z,16.20
2023-01-12T16:34:29.187Z,17.80
2023-01-12T16:37:00.581Z,15.30
2023-01-12T16:39:30.383Z,15.80
2023-01-12T16:42:05.732Z,18.20
2023-01-12T16:44:39.268Z,15.70
2023-01-12T16:47:13.114Z,20.60
2023-01-12T16:49:42.344Z,20.20
2023-01-12T16:52:15.766Z,16.10
2023-01-12T16:54:45.200Z,17.20
2023-01-12T16:57:16.637Z,17.40
2023-01-12T16:59:45.808Z,22.00
2023-01-12T17:02:16.264Z,21.30
2023-01-12T17:04:45.991Z,19.20
2023-01-12T17:07:15.775Z,16.90
2023-01-12T17:09:44.876Z,20.00
2023-01-12T17:12:13.883Z,20.80
2023-01-12T17:15:16.192Z,21.60
2023-01-12T17:17:54.289Z,17.70
2023-01-12T17:20:28.809Z,19.10
2023-01-12T17:23:26.256Z,19.40
2023-01-12T17:26:42.634Z,29.10
2023-01-12T17:29:12.941Z,23.70
2023-01-12T17:34:13.213Z,17.90
2023-01-12T17:36:43.281Z,19.60
2023-01-12T17:39:14.863Z,20.40
2023-01-12T17:42:04.852Z,22.30
2023-01-12T17:44:34.267Z,22.80
2023-01-12T17:47:03.015Z,21.20
2023-01-12T17:49:31.671Z,16.20
2023-01-12T17:52:01.989Z,19.50
2023-01-12T17:54:31.446Z,21.40
2023-01-12T17:57:01.368Z,18.50
2023-01-12T17:59:30.062Z,21.70
2023-01-12T18:02:00.540Z,19.30
2023-01-12T18:04:32.661Z,18.80
2023-01-12T18:07:01.691Z,21.60
2023-01-12T18:09:31.716Z,20.60
2023-01-12T18:12:00.906Z,21.40
2023-01-12T18:14:29.751Z,20.10
2023-01-12T18:21:17.929Z,20.90
2023-01-12T18:23:58.266Z,21.40
2023-01-12T18:26:38.963Z,20.20
2023-01-12T18:29:14.554Z,23.50
2023-01-12T18:31:48.504Z,19.10
2023-01-12T18:34:24.636Z,19.80
2023-01-12T18:36:55.975Z,17.90
2023-01-12T18:39:31.205Z,19.20
2023-01-12T18:42:25.266Z,17.70
2023-01-12T18:45:03.800Z,17.60
2023-01-12T18:47:53.966Z,16.50
2023-01-12T18:50:43.303Z,18.20
2023-01-12T18:53:32.713Z,14.00
2023-01-12T18:56:09.412Z,16.90
2023-01-12T18:58:44.280Z,19.00
2023-01-12T19:01:27.635Z,20.10
2023-01-12T19:04:04.277Z,17.20
2023-01-12T19:06:48.906Z,16.30
2023-01-12T19:09:36.815Z,17.40
2023-01-12T19:12:08.923Z,16.20
2023-01-12T19:15:01.567Z,17.10
2023-01-12T19:23:48.259Z,18.70
2023-01-12T19:26:38.759Z,17.10
2023-01-12T19:29:10.971Z,16.40
2023-01-12T19:31:40.096Z,17.60
2023-01-12T19:34:09.973Z,16.00
2023-01-12T19:36:39.335Z,16.10
2023-01-12T19:39:09.878Z,16.00
2023-01-12T19:42:00.255Z,17.00
2023-01-12T19:44:29.867Z,17.90
2023-01-12T19:46:59.580Z,20.70
2023-01-12T19:49:28.371Z,17.10
2023-01-12T19:51:57.729Z,15.00
2023-01-12T19:54:29.524Z,15.00
2023-01-12T19:56:58.712Z,16.70
2023-01-12T19:59:51.316Z,14.80
2023-01-12T20:02:34.521Z,19.70
2023-01-12T20:05:03.510Z,16.50
2023-01-12T20:07:32.249Z,15.50
2023-01-12T20:10:00.908Z,18.70
2023-01-12T20:12:30.457Z,15.40
2023-01-12T20:14:58.893Z,16.60
2023-01-12T20:17:28.133Z,18.00
2023-01-12T20:19:56.825Z,14.80
2023-01-12T20:22:25.507Z,14.50
2023-01-12T20:24:54.037Z,14.50
2023-01-12T20:27:24.425Z,16.20
2023-01-12T20:29:56.793Z,15.80
2023-01-12T20:32:31.913Z,18.00
2023-01-12T20:35:06.217Z,17.30
2023-01-12T20:37:38.809Z,16.00
2023-01-12T20:40:24.085Z,17.20
2023-01-12T20:42:59.759Z,14.80
2023-01-12T20:45:28.486Z,15.40
2023-01-12T20:47:57.188Z,15.70
2023-01-12T20:50:25.939Z,16.10
2023-01-12T20:52:55.579Z,13.20
2023-01-12T20:55:23.974Z,13.70
2023-01-12T20:57:53.171Z,15.00
2023-01-12T21:00:21.816Z,15.80
2023-01-12T21:03:01.006Z,18.00
2023-01-12T21:05:35.582Z,14.00
2023-01-12T21:08:08.375Z,16.90
2023-01-12T21:10:41.338Z,18.20
2023-01-12T21:13:11.133Z,12.70
2023-01-12T21:15:42.551Z,17.10
2023-01-12T21:18:14.026Z,17.20
2023-01-12T21:20:44.773Z,15.90
2023-01-12T21:23:16.967Z,17.00
2023-01-12T21:25:47.272Z,14.40
2023-01-12T21:28:18.023Z,15.60
2023-01-12T21:30:49.009Z,14.40
2023-01-12T21:33:18.242Z,18.00
2023-01-12T21:35:56.803Z,15.50
2023-01-12T21:38:30.878Z,13.80
2023-01-12T21:41:11.280Z,12.60
2023-01-12T21:46:12.117Z,17.00
2023-01-12T21:48:41.881Z,17.50
2023-01-12T21:51:14.569Z,14.40
2023-01-12T21:53:45.591Z,16.00
2023-01-12T21:56:15.691Z,16.00
2023-01-12T21:58:46.613Z,12.20
2023-01-12T22:01:16.811Z,13.90
2023-01-12T22:03:47.604Z,13.40
2023-01-12T22:06:20.455Z,17.80
2023-01-12T22:08:50.618Z,14.20
2023-01-12T22:11:21.254Z,11.80
2023-01-12T22:13:51.687Z,16.00
2023-01-12T22:16:22.438Z,15.00
2023-01-12T22:18:54.234Z,15.10
2023-01-12T22:21:24.891Z,13.80
2023-01-12T22:23:56.587Z,16.50
2023-01-12T22:26:29.234Z,12.00
2023-01-12T22:28:59.039Z,15.10
2023-01-12T22:31:32.963Z,15.30
2023-01-12T22:34:07.221Z,11.60
2023-01-12T22:36:55.319Z,13.90
2023-01-12T22:39:25.033Z,14.50
2023-01-12T22:41:58.016Z,14.00
2023-01-12T22:44:27.279Z,14.30
2023-01-12T22:46:56.247Z,13.40
2023-01-12T22:49:25.471Z,14.30
2023-01-12T22:51:54.618Z,11.90
2023-01-12T22:54:23.774Z,13.90
2023-01-12T22:56:52.466Z,15.10
2023-01-12T22:59:21.838Z,12.10
2023-01-12T23:01:51.457Z,13.50
2023-01-12T23:04:20.781Z,15.20
2023-01-12T23:06:49.584Z,16.50
2023-01-12T23:09:18.710Z,14.20
2023-01-12T23:11:47.484Z,13.40
2023-01-12T23:14:16.880Z,16.00
2023-01-12T23:16:45.664Z,16.20
2023-01-12T23:19:14.527Z,18.30
2023-01-12T23:21:44.234Z,10.20
2023-01-12T23:24:13.274Z,14.20
2023-01-12T23:26:42.487Z,14.20
2023-01-12T23:29:11.276Z,13.70
2023-01-12T23:31:40.232Z,13.00
2023-01-12T23:34:09.130Z,14.20
2023-01-12T23:36:38.362Z,14.70
2023-01-12T23:39:09.551Z,10.20
2023-01-12T23:41:39.026Z,13.20
2023-01-12T23:44:10.369Z,14.70
2023-01-12T23:46:41.013Z,13.30
2023-01-12T23:51:38.845Z,9.90
2023-01-12T23:54:07.932Z,12.10
2023-01-12T23:56:36.556Z,10.60
2023-01-12T23:59:04.971Z,11.50
